Flight Track Log - Related Links

Times and Time Zones

All times are in EDT time to prevent confusion due to time zone crossing. See the MRA605 flight status page for this flight to view local times or setup timezone preferences in your user account.

Time Position Orientation Groundspeed Altitude Reporting Facility
EDT Latitude Longitude Course Direction KTS MPH feet Rate Location/Type
Fri 07:54:48 PM 45.4344 -84.8150 174° South 135 155 4,300  Level Minneapolis Center
Fri 07:55:49 PM 45.4014 -84.8114 176° South 129 148 5,100 634 Climbing Minneapolis Center
Fri 07:56:51 PM 45.3606 -84.8044 173° South 130 150 5,600 537 Climbing Minneapolis Center
Fri 07:57:00 PM 45.3397 -84.7785 176° South  Level Estimated
Fri 07:57:52 PM 45.3239 -84.7997 175° South 133 153 6,200  Level Minneapolis Center
Fri 07:58:00 PM 45.2937 -84.7810 182° South  Level FlightAware Approximate
Fri 07:58:56 PM 45.2872 -84.7928 172° South 126 145 6,800  Level Minneapolis Center
Fri 07:59:00 PM 45.2477 -84.7773 173° South  Level Estimated
Fri 07:59:58 PM 45.2500 -84.7847 171° South 127 146 7,400  Level Minneapolis Center
Fri 08:01:00 PM 45.2153 -84.7767 171° South 128 147 7,900 390 Climbing Minneapolis Center
Fri 08:02:01 PM 45.1814 -84.7658 167° South 127 146 8,200 390 Climbing Minneapolis Center
Fri 08:03:03 PM 45.1389 -84.7583 173° South 140 161 8,700 390 Climbing Minneapolis Center
Fri 08:04:04 PM 45.1019 -84.7522 173° South 137 158 9,000 146 Climbing Minneapolis Center
Fri 08:05:06 PM 45.0567 -84.7483 177° South 150 173 9,000  Level Minneapolis Center
Fri 08:06:08 PM 45.0111 -84.7442 176° South 164 189 9,000  Level Minneapolis Center
Fri 08:07:10 PM 44.9619 -84.7442 180° South 165 190 9,000  Level Minneapolis Center
Fri 08:08:11 PM 44.9161 -84.7417 178° South 166 191 9,000  Level Minneapolis Center
Fri 08:09:13 PM 44.8675 -84.7397 178° South 165 190 9,000  Level Minneapolis Center
Fri 08:10:15 PM 44.8222 -84.7372 178° South 164 189 9,000  Level Minneapolis Center
Fri 08:11:17 PM 44.7814 -84.7356 178° South 160 184 9,000  Level Minneapolis Center
Fri 08:12:18 PM 44.7381 -84.7311 176° South 157 181 9,000  Level Minneapolis Center
Fri 08:13:20 PM 44.6822 -84.7244 175° South 163 188 9,000  Level Minneapolis Center
Fri 08:14:22 PM 44.6369 -84.7194 176° South 163 188 9,000  Level Minneapolis Center
Fri 08:15:24 PM 44.5914 -84.7156 177° South 163 188 9,000  Level Minneapolis Center
Fri 08:16:25 PM 44.5464 -84.7119 177° South 162 186 9,000  Level Minneapolis Center
Fri 08:17:28 PM 44.5019 -84.7058 174° South 162 186 9,000  Level Minneapolis Center
Fri 08:18:30 PM 44.4581 -84.7033 178° South 158 182 9,000  Level Minneapolis Center
Fri 08:19:31 PM 44.4147 -84.7042 181° South 157 181 9,000  Level Minneapolis Center
Fri 08:20:33 PM 44.3619 -84.7056 181° South 158 182 9,000  Level Minneapolis Center
Fri 08:21:35 PM 44.3175 -84.7036 178° South 159 183 9,000  Level Minneapolis Center
Fri 08:22:37 PM 44.2733 -84.7033 180° South 158 182 9,000  Level Minneapolis Center
Fri 08:23:38 PM 44.2292 -84.7019 179° South 159 183 9,000  Level Minneapolis Center
Fri 08:24:40 PM 44.1844 -84.6992 177° South 161 185 9,000  Level Minneapolis Center
Fri 08:25:42 PM 44.1394 -84.6975 178° South 161 185 9,000  Level Minneapolis Center
Fri 08:26:44 PM 44.0942 -84.6958 178° South 162 186 9,000  Level Minneapolis Center
Fri 08:27:45 PM 44.0394 -84.6956 180° South 163 188 9,000  Level Minneapolis Center
Fri 08:28:47 PM 43.9978 -84.6914 176° South 163 188 9,000  Level Minneapolis Center
Fri 08:29:49 PM 43.9531 -84.6869 176° South 162 186 9,000  Level Minneapolis Center
Fri 08:30:51 PM 43.9097 -84.6831 176° South 159 183 9,000  Level Minneapolis Center
Fri 08:31:53 PM 43.8669 -84.6797 177° South 155 178 9,000  Level Minneapolis Center
Fri 08:32:55 PM 43.8144 -84.6733 175° South 157 181 9,000  Level Minneapolis Center
Fri 08:33:57 PM 43.7711 -84.6703 177° South 156 180 9,000  Level Minneapolis Center
Fri 08:34:59 PM 43.7278 -84.6667 177° South 157 181 9,000 -48 Level Minneapolis Center
Fri 08:36:01 PM 43.6839 -84.6642 178° South 157 181 8,900 -387 Descending Minneapolis Center
Fri 08:37:03 PM 43.6356 -84.6594 176° South 168 193 8,200 -585 Descending Minneapolis Center
Fri 08:38:04 PM 43.5847 -84.6564 178° South 178 205 7,700 -634 Descending Minneapolis Center
Fri 08:39:06 PM 43.5233 -84.6500 176° South 182 209 6,900 -677 Descending Minneapolis Center
Fri 08:40:08 PM 43.4733 -84.6456 176° South 181 208 6,300 -435 Descending Minneapolis Center
Fri 08:41:10 PM 43.4214 -84.6419 177° South 184 212 6,000 -145 Descending Minneapolis Center
Fri 08:42:12 PM 43.3739 -84.6383 177° South 181 208 6,000  Level Minneapolis Center
Fri 08:43:14 PM 43.3269 -84.6361 178° South 175 201 6,000  Level Minneapolis Center
Fri 08:44:01 PM 43.2833 -84.6297 174° South 167 192 6,000  Level Cleveland Center
Fri 08:45:03 PM 43.2378 -84.6256 176° South 166 191 6,000  Level Cleveland Center
Fri 08:46:05 PM 43.1881 -84.6200 175° South 167 192 6,000 -290 Level Cleveland Center
Fri 08:47:07 PM 43.1425 -84.5953 158° South 179 206 5,400 -532 Descending Cleveland Center
Fri 08:48:09 PM 43.0917 -84.5650 156° South 185 213 4,900 -629 Descending Cleveland Center
Fri 08:49:11 PM 43.0453 -84.5361 156° South 187 215 4,100 -435 Descending Cleveland Center
Fri 08:50:13 PM 42.9969 -84.5042 154° Southeast 180 207 4,000 -339 Descending Cleveland Center
Fri 08:51:15 PM 42.9544 -84.4761 154° Southeast 173 199 3,400 -532 Descending Cleveland Center
Fri 08:52:17 PM 42.9075 -84.4464 155° Southeast 174 200 2,900 -195 Descending Cleveland Center
Fri 08:53:18 PM 42.8667 -84.4186 153° Southeast 170 196 3,000 49 Climbing Cleveland Center
Fri 08:54:20 PM 42.8239 -84.3867 151° Southeast 166 191 3,000 -242 Level Cleveland Center
Fri 08:55:22 PM 42.7825 -84.3519 148° Southeast 176 203 2,500 -339 Descending Cleveland Center
Fri 08:56:24 PM 42.7708 -84.3842 244° Southwest 144 166 2,300  Descending Cleveland Center
Fri 08:57:26 PM 42.7808 -84.4200 291° West 118 136 2,500 49 Climbing Cleveland Center
Fri 08:58:27 PM 42.7761 -84.4697 263° West 129 148 2,400 -97 Descending Cleveland Center
Fri 08:59:30 PM 42.7794 -84.5086 277° West 124 143 2,300 -95 Descending Cleveland Center

Login

Don't have an account? Register now (free) for customized features, flight alerts, and more!